createdAt,value
2022-10-22T00:02:20.834Z,99748.69
2022-10-22T00:05:00.475Z,99749.03
2022-10-22T00:07:42.689Z,99753.03
2022-10-22T00:10:23.773Z,99745.25
2022-10-22T00:13:03.087Z,99741.13
2022-10-22T00:15:45.018Z,99743.13
2022-10-22T00:18:36.159Z,99749.63
2022-10-22T00:21:15.930Z,99756.78
2022-10-22T00:23:55.772Z,99766.78
2022-10-22T00:26:35.536Z,99783.56
2022-10-22T00:29:15.355Z,99772.63
2022-10-22T00:32:07.100Z,99763.84
2022-10-22T00:34:46.813Z,99772.16
2022-10-22T00:37:28.595Z,99773.16
2022-10-22T00:40:08.715Z,99767.84
2022-10-22T00:42:47.756Z,99767.84
2022-10-22T00:45:27.604Z,99767.19
2022-10-22T00:48:07.760Z,99766.53
2022-10-22T00:50:48.195Z,99778.19
2022-10-22T00:53:30.175Z,99775.88
2022-10-22T00:56:52.178Z,99775.88
2022-10-22T00:59:31.943Z,99778.06
2022-10-22T01:02:11.742Z,99784.03
2022-10-22T01:04:53.577Z,99787.34
2022-10-22T01:07:42.107Z,99794.66
2022-10-22T01:10:39.152Z,99792.19
2022-10-22T01:13:22.205Z,99792.69
2022-10-22T01:16:05.026Z,99799.00
2022-10-22T01:18:46.046Z,99793.22
2022-10-22T01:21:27.712Z,99799.38
2022-10-22T01:24:36.027Z,99795.25
2022-10-22T01:27:20.268Z,99791.94
2022-10-22T01:30:01.300Z,99785.31
2022-10-22T01:32:40.970Z,99783.16
2022-10-22T01:35:19.863Z,99790.47
2022-10-22T01:38:01.053Z,99789.84
2022-10-22T01:40:41.057Z,99792.03
2022-10-22T01:43:21.052Z,99787.88
2022-10-22T01:46:01.313Z,99792.19
2022-10-22T01:48:55.139Z,99804.00
2022-10-22T01:51:39.597Z,99800.53
2022-10-22T01:54:22.536Z,99801.34
2022-10-22T01:57:05.332Z,99800.53
2022-10-22T01:59:45.910Z,99785.75
2022-10-22T02:02:27.444Z,99784.94
2022-10-22T02:05:08.313Z,99778.78
2022-10-22T02:07:49.984Z,99769.16
2022-10-22T02:10:29.926Z,99768.66
2022-10-22T02:13:11.006Z,99764.34
2022-10-22T02:15:51.760Z,99763.72
2022-10-22T02:18:45.079Z,99767.66
2022-10-22T02:21:24.084Z,99766.00
2022-10-22T02:24:06.173Z,99754.09
2022-10-22T02:26:45.922Z,99755.75
2022-10-22T02:29:28.670Z,99754.25
2022-10-22T02:32:08.287Z,99755.28
2022-10-22T02:34:50.054Z,99749.94
2022-10-22T02:37:29.420Z,99739.34
2022-10-22T02:40:21.059Z,99734.84
2022-10-22T02:43:00.969Z,99729.53
2022-10-22T02:45:42.537Z,99722.56
2022-10-22T02:48:21.945Z,99711.13
2022-10-22T02:51:01.773Z,99697.66
2022-10-22T02:53:42.791Z,99687.88
2022-10-22T02:56:34.949Z,99679.53
2022-10-22T02:59:14.585Z,99681.19
2022-10-22T03:01:54.500Z,99674.50
2022-10-22T03:04:34.169Z,99662.09
2022-10-22T03:07:13.994Z,99661.22
2022-10-22T03:09:53.809Z,99660.25
2022-10-22T03:12:35.641Z,99670.88
2022-10-22T03:15:16.341Z,99662.09
2022-10-22T03:17:58.632Z,99662.25
2022-10-22T03:20:39.829Z,99663.06
2022-10-22T03:23:21.293Z,99655.91
2022-10-22T03:26:00.647Z,99652.63
2022-10-22T03:28:40.446Z,99659.75
2022-10-22T03:31:20.251Z,99657.28
2022-10-22T03:34:00.015Z,99659.94
2022-10-22T03:36:40.005Z,99666.25
2022-10-22T03:40:07.669Z,99669.75
2022-10-22T03:42:46.469Z,99676.25
2022-10-22T03:48:24.718Z,99676.25
2022-10-22T03:51:04.164Z,99665.78
2022-10-22T03:53:43.830Z,99673.94
2022-10-22T03:56:23.829Z,99687.88
2022-10-22T03:59:03.064Z,99690.88
2022-10-22T04:01:43.301Z,99689.22
2022-10-22T04:04:37.065Z,99685.91
2022-10-22T04:07:18.272Z,99692.06
2022-10-22T04:09:57.659Z,99698.38
2022-10-22T04:12:37.481Z,99700.84
2022-10-22T04:15:19.324Z,99696.53
2022-10-22T04:17:58.707Z,99701.22
2022-10-22T04:20:40.518Z,99707.66
2022-10-22T04:23:19.923Z,99715.50
2022-10-22T04:26:00.259Z,99710.00
2022-10-22T04:28:39.543Z,99725.56
2022-10-22T04:31:19.971Z,99716.78
2022-10-22T04:34:01.532Z,99700.84
2022-10-22T04:36:40.594Z,99710.81
2022-10-22T04:39:20.348Z,99713.47
2022-10-22T04:42:00.149Z,99713.47
2022-10-22T04:44:41.980Z,99712.84
2022-10-22T04:47:21.351Z,99721.28
2022-10-22T04:50:14.197Z,99719.78
2022-10-22T04:52:54.383Z,99716.63
2022-10-22T04:55:34.166Z,99709.03
2022-10-22T04:58:13.986Z,99717.81
2022-10-22T05:00:53.800Z,99712.69
2022-10-22T05:03:33.649Z,99720.00
2022-10-22T05:06:15.429Z,99717.53
2022-10-22T05:08:55.193Z,99719.53
2022-10-22T05:11:35.211Z,99725.84
2022-10-22T05:14:16.253Z,99734.81
2022-10-22T05:16:55.862Z,99736.16
2022-10-22T05:19:35.871Z,99733.50
2022-10-22T05:22:15.463Z,99734.66
2022-10-22T05:24:58.220Z,99749.06
2022-10-22T05:27:37.678Z,99736.16
2022-10-22T05:30:16.505Z,99739.81
2022-10-22T05:32:56.290Z,99739.16
2022-10-22T05:35:38.066Z,99761.38
2022-10-22T05:38:17.480Z,99767.88
2022-10-22T05:41:02.624Z,99768.03
2022-10-22T05:43:41.185Z,99767.69
2022-10-22T05:46:22.817Z,99774.00
2022-10-22T05:49:04.308Z,99772.69
2022-10-22T05:51:46.773Z,99779.00
2022-10-22T05:54:27.981Z,99791.63
2022-10-22T05:57:07.357Z,99795.63
2022-10-22T05:59:49.162Z,99801.75
2022-10-22T06:02:28.586Z,99809.53
2022-10-22T06:05:08.563Z,99824.81
2022-10-22T06:07:48.211Z,99822.16
2022-10-22T06:10:39.814Z,99827.97
2022-10-22T06:13:18.801Z,99829.13
2022-10-22T06:15:59.821Z,99839.75
2022-10-22T06:18:39.247Z,99843.75
2022-10-22T06:21:19.006Z,99848.03
2022-10-22T06:23:58.960Z,99847.38
2022-10-22T06:26:38.620Z,99850.19
2022-10-22T06:29:18.408Z,99855.34
2022-10-22T06:31:58.224Z,99859.97
2022-10-22T06:34:42.115Z,99855.66
2022-10-22T06:37:23.195Z,99859.13
2022-10-22T06:40:02.437Z,99872.22
2022-10-22T06:42:44.277Z,99872.22
2022-10-22T06:45:23.697Z,99878.88
2022-10-22T06:48:04.752Z,99881.69
2022-10-22T06:50:44.884Z,99876.06
2022-10-22T06:53:25.776Z,99880.19
2022-10-22T06:56:09.516Z,99882.19
2022-10-22T06:58:49.467Z,99868.56
2022-10-22T07:01:29.830Z,99863.94
2022-10-22T07:04:11.037Z,99867.25
2022-10-22T07:06:50.207Z,99867.09
2022-10-22T07:09:30.072Z,99860.63
2022-10-22T07:12:22.334Z,99868.56
2022-10-22T07:15:01.309Z,99866.59
2022-10-22T07:17:41.261Z,99864.94
2022-10-22T07:20:22.931Z,99865.59
2022-10-22T07:23:02.316Z,99852.16
2022-10-22T07:25:42.421Z,99847.31
2022-10-22T07:28:21.989Z,99847.16
2022-10-22T07:31:03.792Z,99842.34
2022-10-22T07:33:45.236Z,99834.41
2022-10-22T07:36:26.621Z,99825.09
2022-10-22T07:39:07.019Z,99817.09
2022-10-22T07:41:45.930Z,99804.50
2022-10-22T07:44:24.905Z,99796.88
2022-10-22T07:47:03.909Z,99783.56
2022-10-22T07:49:45.658Z,99745.94
2022-10-22T07:52:27.048Z,99688.41
2022-10-22T07:55:09.115Z,99621.38
2022-10-22T07:57:47.898Z,99574.03
2022-10-22T08:00:27.719Z,99520.16
2022-10-22T08:03:07.411Z,99505.00
2022-10-22T08:05:47.255Z,99485.59
2022-10-22T08:08:46.669Z,99470.03
2022-10-22T08:11:26.829Z,99462.97
2022-10-22T08:14:07.888Z,99443.03
2022-10-22T08:16:47.327Z,99419.09
2022-10-22T08:19:28.633Z,99408.34
2022-10-22T08:22:08.539Z,99412.31
2022-10-22T08:24:48.821Z,99411.59
2022-10-22T08:27:30.108Z,99426.34
2022-10-22T08:30:10.370Z,99428.91
2022-10-22T08:32:51.700Z,99452.38
2022-10-22T08:35:35.976Z,99456.72
2022-10-22T08:38:17.590Z,99479.75
2022-10-22T08:40:58.164Z,99503.81
2022-10-22T08:43:47.236Z,99524.81
2022-10-22T08:46:32.766Z,99553.81
2022-10-22T08:49:13.311Z,99582.41
2022-10-22T08:52:37.461Z,99627.66
2022-10-22T08:55:18.500Z,99651.72
2022-10-22T08:58:02.493Z,99673.97
2022-10-22T09:00:44.144Z,99694.16
2022-10-22T09:03:30.286Z,99721.09
2022-10-22T09:06:53.526Z,99752.03
2022-10-22T09:09:35.515Z,99782.94
2022-10-22T09:12:19.444Z,99814.44
2022-10-22T09:15:00.413Z,99848.41
2022-10-22T09:17:46.835Z,99872.28
2022-10-22T09:20:28.693Z,99898.47
2022-10-22T09:23:13.549Z,99920.72
2022-10-22T09:26:05.928Z,99950.63
2022-10-22T09:28:50.014Z,99971.09
2022-10-22T09:31:32.749Z,99969.66
2022-10-22T09:34:11.629Z,99996.47
2022-10-22T09:36:55.048Z,100018.75
2022-10-22T09:39:35.083Z,100043.91
2022-10-22T09:42:17.160Z,100059.59
2022-10-22T09:45:00.637Z,100099.03
2022-10-22T09:48:00.922Z,100121.53
2022-10-22T09:50:58.389Z,100156.63
2022-10-22T09:53:42.990Z,100186.19
2022-10-22T09:56:24.884Z,100406.66
2022-10-22T09:59:04.906Z,100412.13
2022-10-22T10:01:45.004Z,100424.72
2022-10-22T10:04:42.837Z,100447.06
2022-10-22T10:07:24.492Z,100462.63
2022-10-22T10:10:02.537Z,100475.28
2022-10-22T10:12:42.810Z,100474.09
2022-10-22T10:15:39.553Z,100480.34
2022-10-22T10:18:23.283Z,100479.69
2022-10-22T10:21:03.664Z,100490.25
2022-10-22T10:23:45.707Z,100496.41
2022-10-22T10:26:26.519Z,100522.69
2022-10-22T10:29:11.757Z,100531.13
2022-10-22T10:31:53.855Z,100541.41
2022-10-22T10:34:45.004Z,100553.31
2022-10-22T10:37:28.399Z,100556.63
2022-10-22T10:40:20.128Z,100562.66
2022-10-22T10:43:11.300Z,100586.56
2022-10-22T10:45:55.881Z,100606.94
2022-10-22T10:48:38.179Z,100622.25
2022-10-22T10:51:22.795Z,100637.63
2022-10-22T10:54:09.312Z,100653.06
2022-10-22T10:57:09.083Z,100662.66
2022-10-22T10:59:54.633Z,100670.75
2022-10-22T11:02:46.811Z,100681.72
2022-10-22T11:05:30.985Z,100682.63
2022-10-22T11:08:12.290Z,100693.81
2022-10-22T11:10:51.547Z,100700.94
2022-10-22T11:13:31.893Z,100703.91
2022-10-22T11:16:13.264Z,100713.59
2022-10-22T11:18:56.236Z,100706.84
2022-10-22T11:21:39.637Z,100710.16
2022-10-22T11:24:23.656Z,100717.19
2022-10-22T11:27:04.159Z,100719.22
2022-10-22T11:29:45.544Z,100728.47
2022-10-22T11:32:26.403Z,100731.91
2022-10-22T11:35:06.788Z,100745.03
2022-10-22T11:37:46.462Z,100746.78
2022-10-22T11:40:32.987Z,100749.38
2022-10-22T11:43:12.466Z,100745.94
2022-10-22T11:45:52.021Z,100757.59
2022-10-22T11:48:37.173Z,100752.22
2022-10-22T11:54:27.931Z,100779.81
2022-10-22T11:57:18.817Z,100771.75
2022-10-22T11:59:59.712Z,100773.28
2022-10-22T12:02:43.273Z,100768.53
2022-10-22T12:05:36.037Z,100769.00
2022-10-22T12:08:18.683Z,100763.63
2022-10-22T12:11:04.189Z,100761.34
2022-10-22T12:13:54.289Z,100759.91
2022-10-22T12:16:55.120Z,100767.59
2022-10-22T12:19:38.350Z,100760.56
2022-10-22T12:22:18.157Z,100750.38
2022-10-22T12:24:58.004Z,100754.53
2022-10-22T12:27:39.575Z,100744.78
2022-10-22T12:30:23.592Z,100722.25
2022-10-22T12:33:03.360Z,100727.72
2022-10-22T12:35:45.211Z,100730.44
2022-10-22T12:38:25.412Z,100752.22
2022-10-22T12:41:07.452Z,100749.34
2022-10-22T12:43:59.588Z,100746.25
2022-10-22T12:46:39.628Z,100755.00
2022-10-22T12:49:20.262Z,100753.69
2022-10-22T12:52:00.385Z,100754.75
2022-10-22T12:54:42.614Z,100752.44
2022-10-22T12:57:22.001Z,100751.22
2022-10-22T13:00:04.178Z,100761.84
2022-10-22T13:02:45.324Z,100752.31
2022-10-22T13:05:27.609Z,100759.81
2022-10-22T13:08:08.629Z,100759.28
2022-10-22T13:10:51.662Z,100771.53
2022-10-22T13:13:33.094Z,100767.38
2022-10-22T13:16:15.907Z,100763.63
2022-10-22T13:18:55.114Z,100762.19
2022-10-22T13:21:36.016Z,100764.06
2022-10-22T13:24:22.039Z,100755.97
2022-10-22T13:27:00.733Z,100743.97
2022-10-22T13:29:52.308Z,100760.97
2022-10-22T13:32:34.537Z,100762.41
2022-10-22T13:35:14.423Z,100762.81
2022-10-22T13:37:56.025Z,100768.00
2022-10-22T13:40:36.677Z,100769.00
2022-10-22T13:43:16.683Z,100761.16
2022-10-22T13:45:56.141Z,100773.59
2022-10-22T13:48:35.732Z,100777.09
2022-10-22T13:51:18.171Z,100782.47
2022-10-22T13:53:56.925Z,100783.53
2022-10-22T13:56:36.799Z,100782.69
2022-10-22T13:59:19.713Z,100782.03
2022-10-22T14:02:06.354Z,100795.03
2022-10-22T14:04:45.782Z,100786.13
2022-10-22T14:07:25.611Z,100783.03
2022-10-22T14:10:10.710Z,100789.16
2022-10-22T14:12:52.549Z,100783.03
2022-10-22T14:15:32.963Z,100781.09
2022-10-22T14:18:13.887Z,100777.38
2022-10-22T14:20:52.741Z,100778.41
2022-10-22T14:23:34.793Z,100770.78
2022-10-22T14:26:20.886Z,100770.56
2022-10-22T14:29:15.435Z,100764.78
2022-10-22T14:31:54.328Z,100782.06
2022-10-22T14:34:49.466Z,100779.38
2022-10-22T14:37:28.945Z,100776.66
2022-10-22T14:40:09.811Z,100773.34
2022-10-22T14:42:49.118Z,100784.47
2022-10-22T14:45:27.879Z,100776.59
2022-10-22T14:48:11.223Z,100786.88
2022-10-22T14:50:51.085Z,100785.31
2022-10-22T14:53:30.906Z,100789.84
2022-10-22T14:56:11.646Z,100786.72
2022-10-22T14:58:50.750Z,100784.97
2022-10-22T15:01:44.153Z,100779.59
2022-10-22T15:04:25.800Z,100786.56
2022-10-22T15:07:04.897Z,100785.72
2022-10-22T15:09:45.943Z,100796.22
2022-10-22T15:12:26.163Z,100786.50
2022-10-22T15:15:09.460Z,100799.25
2022-10-22T15:17:48.997Z,100803.41
2022-10-22T15:20:30.783Z,100805.22
2022-10-22T15:23:10.144Z,100809.47
2022-10-22T15:25:49.994Z,100803.53
2022-10-22T15:28:29.806Z,100801.88
2022-10-22T15:31:09.636Z,100804.72
2022-10-22T15:33:51.381Z,100802.97
2022-10-22T15:36:35.932Z,100816.13
2022-10-22T15:39:17.543Z,100794.59
2022-10-22T15:41:59.780Z,100797.09
2022-10-22T15:44:40.712Z,100805.81
2022-10-22T15:47:19.642Z,100807.69
2022-10-22T15:49:59.471Z,100812.59
2022-10-22T15:52:41.247Z,100816.69
2022-10-22T15:55:20.725Z,100819.81
2022-10-22T15:58:03.412Z,100818.38
2022-10-22T16:00:42.736Z,100810.88
2022-10-22T16:03:21.814Z,100808.84
2022-10-22T16:06:00.722Z,100813.19
2022-10-22T16:08:39.375Z,100809.50
2022-10-22T16:11:20.685Z,100806.19
2022-10-22T16:14:02.269Z,100801.75
2022-10-22T16:16:44.915Z,100809.34
2022-10-22T16:19:44.595Z,100808.22
2022-10-22T16:22:24.626Z,100802.03
2022-10-22T16:25:04.393Z,100806.38
2022-10-22T16:27:44.060Z,100813.75
2022-10-22T16:30:25.783Z,100811.47
2022-10-22T16:33:04.947Z,100816.53
2022-10-22T16:35:46.956Z,100819.09
2022-10-22T16:38:28.409Z,100813.94
2022-10-22T16:41:11.571Z,100809.59
2022-10-22T16:43:51.684Z,100820.41
2022-10-22T16:46:30.668Z,100818.94
2022-10-22T16:49:10.493Z,100821.13
2022-10-22T16:51:50.261Z,100819.56
2022-10-22T16:54:32.143Z,100810.03
2022-10-22T16:57:13.621Z,100810.69
2022-10-22T16:59:52.823Z,100807.22
2022-10-22T17:02:32.698Z,100803.41
2022-10-22T17:05:12.867Z,100805.25
2022-10-22T17:08:04.091Z,100801.09
2022-10-22T17:10:43.860Z,100805.69
2022-10-22T17:13:23.690Z,100810.69
2022-10-22T17:16:03.804Z,100818.91
2022-10-22T17:18:43.557Z,100813.91
2022-10-22T17:21:34.986Z,100817.31
2022-10-22T17:24:14.637Z,100822.72
2022-10-22T17:26:54.630Z,100822.88
2022-10-22T17:29:34.269Z,100832.28
2022-10-22T17:32:14.052Z,100827.00
2022-10-22T17:34:55.925Z,100833.59
2022-10-22T17:37:35.695Z,100835.16
2022-10-22T17:40:17.147Z,100842.88
2022-10-22T17:42:57.101Z,100843.38
2022-10-22T17:45:49.791Z,100846.22
2022-10-22T17:48:31.510Z,100841.41
2022-10-22T17:51:13.241Z,100847.69
2022-10-22T17:54:08.978Z,100848.69
2022-10-22T17:56:51.559Z,100843.34
2022-10-22T17:59:32.028Z,100847.06
2022-10-22T18:02:11.984Z,100857.25
2022-10-22T18:04:52.824Z,100849.75
2022-10-22T18:07:34.800Z,100853.81
2022-10-22T18:10:16.311Z,100856.31
2022-10-22T18:12:55.545Z,100858.81
2022-10-22T18:15:38.396Z,100860.81
2022-10-22T18:18:20.336Z,100867.31
2022-10-22T18:21:00.441Z,100868.84
2022-10-22T18:23:39.764Z,100876.22
2022-10-22T18:26:24.406Z,100876.56
2022-10-22T18:29:05.662Z,100875.25
2022-10-22T18:31:45.628Z,100889.91
2022-10-22T18:34:25.269Z,100889.59
2022-10-22T18:37:07.055Z,100898.66
2022-10-22T18:39:47.840Z,100904.66
2022-10-22T18:42:32.870Z,100913.34
2022-10-22T18:45:17.366Z,100909.66
2022-10-22T18:48:00.655Z,100911.34
2022-10-22T18:50:42.210Z,100916.69
2022-10-22T18:53:24.044Z,100921.00
2022-10-22T18:56:02.976Z,100911.34
2022-10-22T18:58:46.128Z,100920.16
2022-10-22T19:01:30.681Z,100922.00
2022-10-22T19:04:13.145Z,100921.78
2022-10-22T19:06:56.623Z,100929.66
2022-10-22T19:09:39.006Z,100922.97
2022-10-22T19:12:21.409Z,100925.44
2022-10-22T19:15:02.767Z,100930.59
2022-10-22T19:17:49.378Z,100936.38
2022-10-22T19:20:28.405Z,100934.22
2022-10-22T19:23:10.156Z,100926.69
2022-10-22T19:25:49.735Z,100943.19
2022-10-22T19:28:29.398Z,100947.47
2022-10-22T19:31:12.965Z,100955.28
2022-10-22T19:33:51.572Z,100947.75
2022-10-22T19:36:30.904Z,100953.72
2022-10-22T19:39:15.940Z,100949.03
2022-10-22T19:41:57.948Z,100946.69
2022-10-22T19:44:39.890Z,100957.97
2022-10-22T19:47:21.549Z,100958.97
2022-10-22T19:50:06.201Z,100959.59
2022-10-22T19:52:45.324Z,100954.59
2022-10-22T19:55:28.100Z,100961.53
2022-10-22T19:58:08.837Z,100967.66
2022-10-22T20:00:47.074Z,100965.31
2022-10-22T20:03:30.305Z,100970.25
2022-10-22T20:06:10.084Z,100966.06
2022-10-22T20:09:03.738Z,100965.88
2022-10-22T20:11:46.228Z,100966.50
2022-10-22T20:14:31.056Z,100972.25
2022-10-22T20:17:13.348Z,100974.72
2022-10-22T20:20:06.837Z,100971.69
2022-10-22T20:22:48.839Z,100980.94
2022-10-22T20:25:45.030Z,100975.25
2022-10-22T20:28:30.297Z,100982.41
2022-10-22T20:31:16.044Z,100978.50
2022-10-22T20:34:01.477Z,100978.97
2022-10-22T20:36:39.983Z,100987.53
2022-10-22T20:39:22.502Z,100985.03
2022-10-22T20:42:07.066Z,100982.66
2022-10-22T20:44:46.703Z,100985.63
2022-10-22T20:47:34.224Z,100984.13
2022-10-22T20:50:27.356Z,100978.53
2022-10-22T20:53:06.960Z,100979.00
2022-10-22T20:55:59.053Z,100982.97
2022-10-22T20:58:40.131Z,100977.25
2022-10-22T21:01:21.803Z,100972.66
2022-10-22T21:04:00.949Z,100975.94
2022-10-22T21:06:43.113Z,100967.69
2022-10-22T21:09:29.231Z,100969.13
2022-10-22T21:12:28.529Z,100966.91
2022-10-22T21:15:12.675Z,100970.56
2022-10-22T21:17:54.974Z,100974.78
2022-10-22T21:20:36.050Z,100978.44
2022-10-22T21:23:15.318Z,100976.06
2022-10-22T21:25:56.032Z,100972.03
2022-10-22T21:28:35.825Z,100965.19
2022-10-22T21:31:22.112Z,100968.31
2022-10-22T21:34:02.879Z,100960.75
2022-10-22T21:36:43.489Z,100958.38
2022-10-22T21:39:24.383Z,100958.81
2022-10-22T21:42:05.073Z,100954.94
2022-10-22T21:44:45.368Z,100950.72
2022-10-22T21:47:24.843Z,100953.13
2022-10-22T21:50:06.115Z,100957.22
2022-10-22T21:52:46.053Z,100950.53
2022-10-22T21:55:27.865Z,100953.59
2022-10-22T21:58:07.467Z,100951.78
2022-10-22T22:00:50.454Z,100949.25
2022-10-22T22:03:30.507Z,100940.75
2022-10-22T22:06:10.007Z,100945.22
2022-10-22T22:08:49.935Z,100931.41
2022-10-22T22:11:29.538Z,100932.69
2022-10-22T22:14:08.413Z,100943.81
2022-10-22T22:16:47.448Z,100928.03
2022-10-22T22:19:27.265Z,100936.16
2022-10-22T22:22:09.175Z,100926.81
2022-10-22T22:24:48.461Z,100933.25
2022-10-22T22:27:30.360Z,100931.44
2022-10-22T22:30:10.849Z,100932.56
2022-10-22T22:32:49.511Z,100938.97
2022-10-22T22:35:29.558Z,100934.81
2022-10-22T22:38:20.963Z,100938.59
2022-10-22T22:41:01.266Z,100928.38
2022-10-22T22:43:40.580Z,100938.44
2022-10-22T22:46:20.322Z,100927.25
2022-10-22T22:49:00.163Z,100926.72
2022-10-22T22:51:41.169Z,100919.03
2022-10-22T22:54:22.560Z,100919.28
2022-10-22T22:57:02.723Z,100923.06
2022-10-22T22:59:42.696Z,100925.88
2022-10-22T23:02:22.358Z,100924.34
2022-10-22T23:05:02.147Z,100924.63
2022-10-22T23:07:42.201Z,100921.41
2022-10-22T23:10:20.997Z,100921.69
2022-10-22T23:12:59.993Z,100908.00
2022-10-22T23:15:41.772Z,100906.47
2022-10-22T23:18:22.416Z,100912.06
2022-10-22T23:21:05.864Z,100901.31
2022-10-22T23:23:46.101Z,100903.41
2022-10-22T23:26:41.208Z,100906.34
2022-10-22T23:29:23.078Z,100903.81
2022-10-22T23:32:04.035Z,100902.13
2022-10-22T23:34:43.139Z,100898.22
2022-10-22T23:37:22.812Z,100891.25
2022-10-22T23:40:04.933Z,100898.22
2022-10-22T23:42:46.042Z,100897.53
2022-10-22T23:45:25.450Z,100895.00
2022-10-22T23:48:05.312Z,100888.72
2022-10-22T23:50:44.291Z,100879.25
2022-10-22T23:53:23.271Z,100875.63
2022-10-22T23:56:05.505Z,100872.25
2022-10-22T23:58:46.480Z,100865.97
